There are multiple Weather-warnings   Click here for more information


Meteo18 Weather Cam more information Meteo18 Weather Cam


warning for Thunderstorms more information blitzortung!


Rain radar more information rain snow radar


Visit our other weather sites:

Template documentation
and downloads

And another site



Weather Underground History page Text

Daily Summary for June 20, 2017 Units:  English    Metric   Both
« Previous Day
Next Day »
Daily Weekly Monthly Yearly Custom
  High: Low: Average:
Temperature: 95.5 °F 66 °F 81.3 °F
Dew Point: 68.4 °F 61.5 °F 64.6 °F
Humidity: 87 % 35 % 60 %
Wind Speed: 19 mph 0 mph 1.7 mph
Wind Gust: 24 mph - -
Wind:- - SSW
Pressure: 30.1 in 30 in -
Precipitation: 0 in    
Historical Graphs
 
 
Tabular Data for June 20, 2017
Time Temperature Dew Point Pressure Wind Wind Speed Wind Gust Humidity Rainfall Rate (Hourly)
00:02 73.2 °F 64 °F 30 in Calm     73 % 0 in
00:07 72.9 °F 64 °F 30 in WNW 1 mph 1 mph 74 % 0 in
00:12 72.7 °F 63.9 °F 30 in Calm   1 mph 74 % 0 in
00:17 72.7 °F 63.5 °F 30 in Calm   1 mph 73 % 0 in
00:27 72.7 °F 63.5 °F 30 in Calm   1 mph 73 % 0 in
00:32 72.7 °F 63.5 °F 30 in Calm   1 mph 73 % 0 in
00:42 72.7 °F 63.5 °F 30 in Calm   1 mph 73 % 0 in
00:47 72.3 °F 63.1 °F 30 in Calm   1 mph 73 % 0 in
00:52 72 °F 63.7 °F 30 in Calm   1 mph 75 % 0 in
00:57 71.6 °F 63.3 °F 30 in Calm   1 mph 75 % 0 in
01:02 71.4 °F 63.5 °F 30 in Calm   1 mph 76 % 0 in
01:07 71.2 °F 63.3 °F 30 in Calm     76 % 0 in
01:12 70.9 °F 63.3 °F 30 in Calm     77 % 0 in
01:17 71.1 °F 63.5 °F 30 in Calm     77 % 0 in
01:22 71.2 °F 63.3 °F 30 in Calm     76 % 0 in
01:32 70.9 °F 63 °F 30 in ENE 1 mph   76 % 0 in
01:37 70.2 °F 63 °F 30 in Calm   4 mph 78 % 0 in
01:42 69.6 °F 62.4 °F 30 in SSW 1 mph 4 mph 78 % 0 in
01:47 69.1 °F 62.2 °F 30 in Calm   4 mph 79 % 0 in
01:52 68.7 °F 62.6 °F 30 in Calm   1 mph 81 % 0 in
01:57 68.5 °F 62.8 °F 30 in Calm   1 mph 82 % 0 in
02:02 68.2 °F 62.4 °F 30 in Calm   1 mph 82 % 0 in
02:12 68.5 °F 62.8 °F 30 in Calm   2 mph 82 % 0 in
02:17 68.5 °F 62.4 °F 30 in NNE 3 mph 3 mph 81 % 0 in
02:27 67.8 °F 62.1 °F 30 in North 1 mph 4 mph 82 % 0 in
02:32 67.8 °F 62.4 °F 30 in West 2 mph 4 mph 83 % 0 in
02:42 68.4 °F 62.6 °F 30 in Calm   4 mph 82 % 0 in
02:47 69.1 °F 63 °F 30 in NNW 1 mph 4 mph 81 % 0 in
02:52 69.8 °F 63 °F 30 in NNW 2 mph 2 mph 79 % 0 in
02:57 70.2 °F 63 °F 30 in NW 3 mph 3 mph 78 % 0 in
03:02 70 °F 62.8 °F 30 in Calm   3 mph 78 % 0 in
03:07 69.6 °F 62.8 °F 30 in Calm   3 mph 79 % 0 in
03:12 69.3 °F 62.4 °F 30 in West 1 mph 3 mph 79 % 0 in
03:17 69.1 °F 63 °F 30 in SW 3 mph 3 mph 81 % 0 in
03:22 68.4 °F 62.2 °F 30 in Calm   10 mph 81 % 0 in
03:27 68.4 °F 62.2 °F 30 in Calm   10 mph 81 % 0 in
03:32 68.4 °F 62.2 °F 30 in SE 1 mph 10 mph 81 % 0 in
03:42 68.4 °F 62.2 °F 30 in Calm   2 mph 81 % 0 in
03:47 68.4 °F 62.2 °F 30 in Calm   2 mph 81 % 0 in
03:52 68.4 °F 62.6 °F 30 in Calm   2 mph 82 % 0 in
04:02 68.4 °F 62.2 °F 30 in Calm   2 mph 81 % 0 in
04:07 68 °F 61.9 °F 30 in Calm     81 % 0 in
04:12 67.6 °F 61.9 °F 30 in Calm     82 % 0 in
04:17 67.3 °F 61.9 °F 30 in Calm     83 % 0 in
04:22 66.9 °F 61.9 °F 30 in Calm     84 % 0 in
04:32 66.9 °F 62.2 °F 30 in Calm   1 mph 85 % 0 in
04:42 67.8 °F 62.4 °F 30 in Calm   1 mph 83 % 0 in
04:47 68.2 °F 62.4 °F 30 in Calm   1 mph 82 % 0 in
04:52 67.6 °F 62.2 °F 30 in Calm   1 mph 83 % 0 in
05:02 67.6 °F 62.2 °F 30 in Calm     83 % 0 in
05:12 67.3 °F 62.2 °F 30 in Calm     84 % 0 in
05:17 66.9 °F 61.9 °F 30 in Calm     84 % 0 in
05:22 66.7 °F 61.7 °F 30 in Calm     84 % 0 in
05:32 66.4 °F 61.7 °F 30 in Calm     85 % 0 in
05:37 66.2 °F 61.9 °F 30 in Calm   2 mph 86 % 0 in
05:42 66.2 °F 61.9 °F 30 in Calm   2 mph 86 % 0 in
05:47 66.6 °F 62.2 °F 30 in Calm   2 mph 86 % 0 in
05:52 66.7 °F 62.1 °F 30 in Calm   2 mph 85 % 0 in
06:02 66.6 °F 61.9 °F 30 in Calm   2 mph 85 % 0 in
06:12 66.2 °F 61.5 °F 30 in Calm   1 mph 85 % 0 in
06:17 66 °F 61.7 °F 30 in Calm     86 % 0 in
06:22 66 °F 61.7 °F 30 in Calm     86 % 0 in
06:32 66.2 °F 62.2 °F 30 in Calm   1 mph 87 % 0 in
06:42 66.4 °F 62.1 °F 30.1 in Calm   1 mph 86 % 0 in
07:02 66.9 °F 62.2 °F 30.1 in Calm     85 % 0 in
07:12 68.4 °F 63.3 °F 30.1 in Calm     84 % 0 in
07:17 69.6 °F 64.2 °F 30.1 in Calm     83 % 0 in
07:22 70.3 °F 64.2 °F 30.1 in Calm     81 % 0 in
07:32 71.8 °F 64.6 °F 30.1 in Calm     78 % 0 in
07:42 72.3 °F 65.5 °F 30.1 in Calm     79 % 0 in
07:47 72.9 °F 65.3 °F 30.1 in Calm     77 % 0 in
07:52 72.1 °F 64.6 °F 30.1 in Calm     77 % 0 in
08:02 73.2 °F 66 °F 30.1 in Calm     78 % 0 in
08:07 74.1 °F 66 °F 30.1 in Calm     76 % 0 in
08:12 75 °F 66.2 °F 30.1 in Calm     74 % 0 in
08:17 75.4 °F 66.2 °F 30.1 in Calm     73 % 0 in
08:22 75.6 °F 66.4 °F 30.1 in Calm     73 % 0 in
08:32 76.6 °F 66.6 °F 30.1 in Calm   2 mph 71 % 0 in
08:42 78.1 °F 66.7 °F 30.1 in Calm   2 mph 68 % 0 in
08:47 78.3 °F 66.4 °F 30.1 in Calm   1 mph 67 % 0 in
08:52 78.4 °F 66.9 °F 30.1 in Calm   1 mph 68 % 0 in
09:02 79.9 °F 67.1 °F 30.1 in SSE 2 mph 2 mph 65 % 0 in
09:12 79.3 °F 66 °F 30.1 in SSW 2 mph 2 mph 64 % 0 in
09:17 79.5 °F 65.8 °F 30.1 in SE 2 mph 5 mph 63 % 0 in
09:22 79.9 °F 67.1 °F 30.1 in SSW 1 mph 5 mph 65 % 0 in
09:32 81.1 °F 66.4 °F 30.1 in SW 2 mph 5 mph 61 % 0 in
09:42 81.9 °F 66.2 °F 30.1 in SW 1 mph 3 mph 59 % 0 in
09:47 81.9 °F 66.2 °F 30.1 in SSW 1 mph 5 mph 59 % 0 in
09:52 82 °F 65.8 °F 30.1 in WSW 2 mph 5 mph 58 % 0 in
09:57 82.2 °F 66 °F 30.1 in SW 2 mph 5 mph 58 % 0 in
10:02 82.8 °F 65.5 °F 30.1 in SSW 4 mph 5 mph 56 % 0 in
10:12 83.5 °F 65.7 °F 30.1 in SSW 1 mph 6 mph 55 % 0 in
10:17 83.8 °F 65.5 °F 30.1 in Calm   6 mph 54 % 0 in
10:22 84.6 °F 65.5 °F 30.1 in ESE 2 mph 6 mph 53 % 0 in
10:32 84.6 °F 66 °F 30.1 in SW 4 mph 4 mph 54 % 0 in
10:42 85.1 °F 65.5 °F 30.1 in SW 1 mph 5 mph 52 % 0 in
10:52 84.6 °F 65.5 °F 30.1 in SW 2 mph 6 mph 53 % 0 in
11:02 84.9 °F 65.3 °F 30.1 in SSW 4 mph 8 mph 52 % 0 in
11:12 85.3 °F 65.7 °F 30.1 in SW 4 mph 7 mph 52 % 0 in
11:17 85.5 °F 66.9 °F 30.1 in SW 3 mph 6 mph 54 % 0 in
11:22 85.5 °F 65.8 °F 30.1 in Calm   6 mph 52 % 0 in
11:32 86.7 °F 66.9 °F 30.1 in SW 5 mph 7 mph 52 % 0 in
11:42 87.3 °F 66.9 °F 30.1 in SSW 4 mph 7 mph 51 % 0 in
11:47 87.1 °F 67.3 °F 30.1 in WSW 5 mph 7 mph 52 % 0 in
11:52 87.3 °F 66.9 °F 30.1 in SSW 2 mph 7 mph 51 % 0 in
12:02 88.2 °F 66.6 °F 30.1 in SSW 1 mph 8 mph 49 % 0 in
12:07 88.3 °F 67.3 °F 30.1 in South 3 mph 4 mph 50 % 0 in
12:12 88.3 °F 66.7 °F 30.1 in South 1 mph 4 mph 49 % 0 in
12:17 88.9 °F 66.6 °F 30.1 in Calm   6 mph 48 % 0 in
12:22 89.4 °F 67.1 °F 30.1 in SSW 3 mph 6 mph 48 % 0 in
12:32 89.4 °F 67.1 °F 30.1 in SE 1 mph 5 mph 48 % 0 in
12:42 91 °F 67.5 °F 30.1 in Calm   6 mph 46 % 0 in
12:47 90.3 °F 66.7 °F 30.1 in South 3 mph 6 mph 46 % 0 in
12:52 90.1 °F 65.8 °F 30.1 in ESE 3 mph 6 mph 45 % 0 in
12:57 90 °F 67.1 °F 30.1 in South 3 mph 6 mph 47 % 0 in
13:02 90 °F 66.4 °F 30.1 in SSW 2 mph 6 mph 46 % 0 in
13:12 90.3 °F 66 °F 30.1 in ESE 1 mph 7 mph 45 % 0 in
13:17 90.1 °F 65.8 °F 30.1 in West 3 mph 9 mph 45 % 0 in
13:22 90.1 °F 65.8 °F 30.1 in West 2 mph 9 mph 45 % 0 in
13:27 90.1 °F 65.3 °F 30.1 in West 2 mph 9 mph 44 % 0 in
13:32 90.5 °F 66.2 °F 30 in SW 3 mph 9 mph 45 % 0 in
13:37 90.7 °F 66.4 °F 30 in SE 3 mph 7 mph 45 % 0 in
13:42 90.7 °F 66.4 °F 30 in Calm   7 mph 45 % 0 in
13:47 90.7 °F 65.8 °F 30 in NNE 2 mph 6 mph 44 % 0 in
13:52 91 °F 66 °F 30 in SSW 2 mph 6 mph 44 % 0 in
13:57 91.6 °F 67.8 °F 30 in SE 1 mph 8 mph 46 % 0 in
14:02 92.7 °F 66.9 °F 30 in East 2 mph 8 mph 43 % 0 in
14:12 91.9 °F 65.5 °F 30 in West 4 mph 8 mph 42 % 0 in
14:17 92.1 °F 66.4 °F 30 in West 1 mph 8 mph 43 % 0 in
14:22 91.8 °F 66 °F 30 in SW 2 mph 9 mph 43 % 0 in
14:32 91.8 °F 64.8 °F 30 in South 6 mph 9 mph 41 % 0 in
14:37 91.8 °F 66 °F 30 in ENE 1 mph 8 mph 43 % 0 in
14:42 92.7 °F 64.8 °F 30 in SE 4 mph 8 mph 40 % 0 in
14:47 93 °F 64.4 °F 30 in ESE 1 mph 8 mph 39 % 0 in
14:52 93 °F 64.4 °F 30 in SW 5 mph 6 mph 39 % 0 in
14:57 93 °F 63.7 °F 30 in SSW 3 mph 10 mph 38 % 0 in
15:02 92.8 °F 64.2 °F 30 in SSW 4 mph 10 mph 39 % 0 in
15:07 92.8 °F 63.5 °F 30 in WNW 3 mph 11 mph 38 % 0 in
15:12 93 °F 62.1 °F 30 in WSW 4 mph 11 mph 36 % 0 in
15:22 93.2 °F 63.1 °F 30 in NNW 4 mph 10 mph 37 % 0 in
15:32 93.4 °F 62.4 °F 30 in Calm   10 mph 36 % 0 in
15:42 93.7 °F 61.9 °F 30 in WNW 3 mph 5 mph 35 % 0 in
15:47 93.4 °F 61.7 °F 30 in Calm   7 mph 35 % 0 in
15:52 93.6 °F 63.3 °F 30 in SSW 4 mph 7 mph 37 % 0 in
15:57 93.9 °F 63 °F 30 in WNW 3 mph 10 mph 36 % 0 in
16:02 93.7 °F 61.9 °F 30 in West 2 mph 10 mph 35 % 0 in
16:12 93.6 °F 61.7 °F 30 in NW 4 mph 9 mph 35 % 0 in
16:22 94.1 °F 63.9 °F 30 in SW 5 mph 11 mph 37 % 0 in
16:32 93.9 °F 63 °F 30 in West 3 mph 12 mph 36 % 0 in
16:37 93.6 °F 63.3 °F 30 in WSW 2 mph 8 mph 37 % 0 in
16:42 93.7 °F 63.5 °F 30 in West 4 mph 8 mph 37 % 0 in
16:52 93.9 °F 63 °F 30 in WNW 3 mph 8 mph 36 % 0 in
17:02 93.4 °F 62.4 °F 30 in SSW 3 mph 8 mph 36 % 0 in
17:12 94.3 °F 62.4 °F 30 in WSW 3 mph 5 mph 35 % 0 in
17:17 93.7 °F 61.9 °F 30 in SW 2 mph 4 mph 35 % 0 in
17:22 94.3 °F 62.4 °F 30 in SW 3 mph 4 mph 35 % 0 in
17:32 95.5 °F 63.5 °F 30 in North 5 mph 5 mph 35 % 0 in
17:37 94.6 °F 63.5 °F 30 in NNW 2 mph 7 mph 36 % 0 in
17:42 94.8 °F 63 °F 30 in West 4 mph 7 mph 35 % 0 in
17:52 94.6 °F 63.5 °F 30 in NW 4 mph 9 mph 36 % 0 in
17:57 94.5 °F 63.3 °F 30 in NNE 3 mph 9 mph 36 % 0 in
18:02 94.3 °F 63.1 °F 30 in WNW 2 mph 9 mph 36 % 0 in
18:07 93.9 °F 62.1 °F 30 in WNW 1 mph 8 mph 35 % 0 in
18:12 93.9 °F 63 °F 30 in NW 3 mph 8 mph 36 % 0 in
18:17 93.6 °F 61.7 °F 30 in West 3 mph 8 mph 35 % 0 in
18:22 93.2 °F 62.2 °F 30 in NNW 2 mph 8 mph 36 % 0 in
18:27 93 °F 62.1 °F 30 in NW 1 mph 8 mph 36 % 0 in
18:32 92.8 °F 62.8 °F 30 in WNW 1 mph 6 mph 37 % 0 in
18:37 92.8 °F 63.5 °F 30 in WNW 3 mph 6 mph 38 % 0 in
18:42 92.5 °F 63.1 °F 30 in WNW 2 mph 4 mph 38 % 0 in
18:47 92.1 °F 62.8 °F 30 in NW 2 mph 5 mph 38 % 0 in
18:52 91.8 °F 63.3 °F 30 in WNW 2 mph 5 mph 39 % 0 in
18:57 91.6 °F 64.6 °F 30 in Calm   5 mph 41 % 0 in
19:02 91.6 °F 65.3 °F 30 in Calm   5 mph 42 % 0 in
19:12 91 °F 64 °F 30 in WNW 1 mph 3 mph 41 % 0 in
19:17 91 °F 65.5 °F 30 in Calm   3 mph 43 % 0 in
19:22 90.9 °F 64.6 °F 30 in Calm   3 mph 42 % 0 in
19:32 90.5 °F 65.7 °F 30 in WNW 2 mph 3 mph 44 % 0 in
19:42 90 °F 66.4 °F 30 in Calm   3 mph 46 % 0 in
19:47 89.6 °F 65.5 °F 30 in Calm   2 mph 45 % 0 in
19:57 89.8 °F 66.9 °F 30 in Calm   1 mph 47 % 0 in
20:02 88.9 °F 68.4 °F 30 in Calm   1 mph 51 % 0 in
20:07 88.2 °F 66.6 °F 30 in Calm   1 mph 49 % 0 in
20:12 88.2 °F 66.6 °F 30 in Calm   1 mph 49 % 0 in
20:17 88.2 °F 66.6 °F 30 in Calm   1 mph 49 % 0 in
20:22 88 °F 68.2 °F 30 in Calm     52 % 0 in
20:32 87.4 °F 67.6 °F 30 in Calm     52 % 0 in
20:42 87.3 °F 67.5 °F 30 in Calm     52 % 0 in
20:47 87.1 °F 66.2 °F 30 in Calm     50 % 0 in
20:52 87.3 °F 68 °F 30 in Calm     53 % 0 in
21:02 87.1 °F 67.3 °F 30 in Calm     52 % 0 in
21:12 85.6 °F 67.6 °F 30 in NE 1 mph 3 mph 55 % 0 in
21:17 85.3 °F 66.2 °F 30 in ENE 2 mph 3 mph 53 % 0 in
21:22 85.8 °F 66.2 °F 30 in NE 2 mph 5 mph 52 % 0 in
21:27 85.5 °F 66.4 °F 30 in East 4 mph 5 mph 53 % 0 in
21:32 85.5 °F 65.8 °F 30 in NE 2 mph 5 mph 52 % 0 in
21:42 84.9 °F 66.4 °F 30 in NNE 1 mph 4 mph 54 % 0 in
21:52 84.6 °F 66.6 °F 30 in NE 2 mph 3 mph 55 % 0 in
21:57 84.6 °F 66.6 °F 30 in NE 1 mph 3 mph 55 % 0 in
22:02 84.2 °F 66.7 °F 30 in ENE 1 mph 3 mph 56 % 0 in
22:07 83.7 °F 66.7 °F 30 in NE 2 mph 3 mph 57 % 0 in
22:17 82.9 °F 67.6 °F 30 in Calm   3 mph 60 % 0 in
22:22 82.2 °F 66.9 °F 30 in WNW 1 mph 2 mph 60 % 0 in
22:27 82 °F 66.7 °F 30 in Calm   1 mph 60 % 0 in
22:32 82 °F 66.7 °F 30 in Calm   1 mph 60 % 0 in
22:37 82 °F 66.7 °F 30 in NNE 2 mph 2 mph 60 % 0 in
22:42 82.4 °F 67.1 °F 30 in Calm   2 mph 60 % 0 in
22:47 82.2 °F 67.5 °F 30 in Calm   2 mph 61 % 0 in
22:52 81.9 °F 67.1 °F 30 in Calm   2 mph 61 % 0 in
22:57 80.8 °F 68 °F 30 in SW 18 mph 18 mph 65 % 0 in
23:07 75.7 °F 66.4 °F 30.1 in WSW 19 mph 23 mph 73 % 0 in
23:12 74.5 °F 66 °F 30.1 in WSW 13 mph 24 mph 75 % 0 in
23:17 73.9 °F 65.8 °F 30.1 in SW 12 mph 24 mph 76 % 0 in
23:22 73.9 °F 65.8 °F 30.1 in WSW 19 mph 24 mph 76 % 0 in
23:27 72.7 °F 65.5 °F 30.1 in West 8 mph 23 mph 78 % 0 in
23:32 72 °F 65.5 °F 30.1 in West 10 mph 23 mph 80 % 0 in
23:37 72.3 °F 64.8 °F 30 in WNW 6 mph 23 mph 77 % 0 in
23:42 72.9 °F 65.3 °F 30 in WNW 8 mph 18 mph 77 % 0 in
23:52 72.9 °F 65.7 °F 30 in West 5 mph 13 mph 78 % 0 in
Meteo18
Compliments of Weather Underground - 4 mb

Script developed by  Jim McMurry - jmcmurry@mwt.net Adapted for the template by  Wim van der Kuil - Leuven-Template.eu

You find our weather info also at:

European Weather Network

Weather Underground

Equipment we use:

Weather-station
Davis Vue

Weather-program
Meteohub

Weather-server
Raspberry PI 2 B+

Provider
1 and 1

Davis Vue

Meteohub

Raspberry PI 2 B+

1 and 1